createdAt,value
2018-11-23T00:10:04.704Z,41.10
2018-11-23T00:20:23.762Z,40.70
2018-11-23T00:30:42.098Z,40.10
2018-11-23T00:41:00.583Z,32.73
2018-11-23T00:51:18.573Z,29.83
2018-11-23T01:01:54.510Z,29.70
2018-11-23T01:12:12.405Z,26.10
2018-11-23T01:22:30.582Z,29.33
2018-11-23T01:32:49.318Z,27.90
2018-11-23T01:43:07.797Z,30.50
2018-11-23T01:53:26.037Z,27.70
2018-11-23T02:03:43.800Z,25.63
2018-11-23T02:14:01.784Z,26.50
2018-11-23T02:24:19.769Z,24.10
2018-11-23T02:34:38.639Z,25.40
2018-11-23T02:44:56.823Z,21.80
2018-11-23T02:55:16.590Z,20.97
2018-11-23T03:05:35.231Z,21.17
2018-11-23T03:15:52.984Z,21.33
2018-11-23T03:26:10.818Z,24.13
2018-11-23T03:36:28.887Z,21.20
2018-11-23T03:46:47.117Z,22.00
2018-11-23T03:57:05.285Z,27.53
2018-11-23T04:07:24.933Z,24.63
2018-11-23T04:17:43.479Z,22.23
2018-11-23T04:28:01.825Z,22.97
2018-11-23T04:38:19.830Z,18.13
2018-11-23T04:48:37.719Z,19.60
2018-11-23T04:58:56.046Z,18.40
2018-11-23T05:09:14.330Z,15.60
2018-11-23T05:19:32.350Z,15.90
2018-11-23T05:29:50.273Z,18.57
2018-11-23T05:40:10.006Z,15.67
2018-11-23T05:50:27.829Z,18.17
2018-11-23T06:00:46.204Z,16.73
2018-11-23T06:11:04.009Z,16.63
2018-11-23T06:21:21.894Z,18.17
2018-11-23T06:31:39.855Z,23.10
2018-11-23T06:41:58.113Z,15.73
2018-11-23T06:52:16.514Z,14.60
2018-11-23T07:02:34.482Z,15.90
2018-11-23T07:12:52.426Z,14.57
2018-11-23T07:23:10.412Z,14.60
2018-11-23T07:33:28.504Z,10.63
2018-11-23T07:43:46.667Z,9.87
2018-11-23T07:54:04.651Z,12.10
2018-11-23T08:04:23.543Z,10.17
2018-11-23T08:14:42.057Z,8.43
2018-11-23T08:25:00.799Z,10.43
2018-11-23T08:35:18.592Z,9.50
2018-11-23T08:45:36.922Z,9.80
2018-11-23T08:55:54.463Z,9.97
2018-11-23T09:06:12.732Z,8.63
2018-11-23T09:16:30.762Z,12.83
2018-11-23T09:26:49.035Z,9.43
2018-11-23T09:37:06.874Z,9.47
2018-11-23T09:47:24.799Z,11.07
2018-11-23T09:57:42.777Z,9.97
2018-11-23T10:08:08.178Z,11.20
2018-11-23T10:18:26.045Z,11.60
2018-11-23T10:28:44.180Z,11.00
2018-11-23T10:39:01.963Z,9.43
2018-11-23T10:49:20.330Z,10.63
2018-11-23T10:59:38.261Z,11.57
2018-11-23T11:09:56.382Z,13.53
2018-11-23T11:20:14.475Z,15.07
2018-11-23T11:30:32.741Z,13.93
2018-11-23T11:40:50.564Z,16.03
2018-11-23T11:51:09.722Z,13.63
2018-11-23T12:01:27.894Z,15.93
2018-11-23T12:11:45.963Z,17.00
2018-11-23T12:22:04.710Z,15.40
2018-11-23T12:32:22.011Z,14.67
2018-11-23T12:42:40.657Z,17.10
2018-11-23T12:53:05.806Z,16.10
2018-11-23T13:03:16.594Z,14.77
2018-11-23T13:13:34.647Z,14.60
2018-11-23T13:23:52.432Z,15.40
2018-11-23T13:34:10.392Z,17.10
2018-11-23T13:44:28.475Z,19.30
2018-11-23T13:54:47.079Z,15.67
2018-11-23T14:05:07.006Z,16.47
2018-11-23T14:15:25.998Z,17.50
2018-11-23T14:25:43.776Z,24.67
2018-11-23T14:36:01.878Z,23.37
2018-11-23T14:46:20.012Z,29.10
2018-11-23T14:56:37.970Z,29.33
2018-11-23T15:06:55.886Z,31.20
2018-11-23T15:17:14.066Z,62.27
2018-11-23T15:27:32.165Z,54.70
2018-11-23T15:37:50.168Z,51.50
2018-11-23T15:48:08.832Z,55.63
2018-11-23T15:58:27.565Z,56.50
2018-11-23T16:08:45.547Z,52.47
2018-11-23T16:19:03.786Z,79.57
2018-11-23T16:29:21.362Z,55.63
2018-11-23T16:39:39.636Z,59.03
2018-11-23T16:49:57.812Z,57.00
2018-11-23T17:00:21.244Z,82.33
2018-11-23T17:10:38.901Z,46.73
2018-11-23T17:20:59.246Z,55.43
2018-11-23T17:31:14.679Z,51.90
2018-11-23T17:41:32.613Z,54.83
2018-11-23T17:51:50.619Z,44.17
2018-11-23T18:02:08.717Z,61.83
2018-11-23T18:12:26.909Z,45.60
2018-11-23T18:22:45.475Z,48.60
2018-11-23T18:33:04.578Z,40.87
2018-11-23T18:43:22.433Z,133.20
2018-11-23T18:53:40.539Z,48.87
2018-11-23T19:03:58.582Z,55.30
2018-11-23T19:14:16.603Z,50.13
2018-11-23T19:24:34.632Z,40.30
2018-11-23T19:34:52.831Z,37.50
2018-11-23T19:45:17.408Z,39.70
2018-11-23T19:55:36.316Z,39.77
2018-11-23T20:05:54.785Z,41.07
2018-11-23T20:16:12.471Z,43.10
2018-11-23T20:26:31.365Z,38.70
2018-11-23T20:36:49.445Z,38.33
2018-11-23T20:47:07.637Z,35.47
2018-11-23T20:57:25.961Z,42.97
2018-11-23T21:07:44.916Z,38.67
2018-11-23T21:18:04.245Z,39.33
2018-11-23T21:28:22.056Z,40.07
2018-11-23T21:38:40.123Z,40.27
2018-11-23T21:48:58.222Z,36.57
2018-11-23T21:59:15.972Z,40.13
2018-11-23T22:09:34.187Z,35.03
2018-11-23T22:19:52.124Z,39.40
2018-11-23T22:30:23.415Z,39.10
2018-11-23T22:40:41.169Z,39.47
2018-11-23T22:50:59.150Z,32.63
2018-11-23T23:01:17.326Z,37.83
2018-11-23T23:11:35.110Z,41.73
2018-11-23T23:21:53.025Z,42.30
2018-11-23T23:32:10.913Z,45.47
2018-11-23T23:42:28.916Z,39.00
2018-11-23T23:52:46.947Z,43.07
